Time;durP1;ratioP1;P1;durP2;ratioP2;P2;SDS_P1;SDS_P2;PMS_P1;PMS_P2;Temp;Humidity;BMP_temperature;BMP_pressure;BME280_temperature;BME280_humidity;BME280_pressure;Samples;Min_cycle;Max_cycle;Signal;HPM_P1;HPM_P2
2021/07/13 00:01:25;;;;;;;18.58;14.25;;;20.30;99.90;;;;;;5073371;28;20033;-69
2021/07/13 00:03:53;;;;;;;19.55;14.88;;;20.30;99.90;;;;;;5073121;28;20039;-69
2021/07/13 00:06:19;;;;;;;21.52;14.77;;;20.20;99.90;;;;;;5072757;28;20123;-69
2021/07/13 00:08:46;;;;;;;19.17;13.43;;;20.20;99.90;;;;;;5088806;28;20020;-69
2021/07/13 00:11:13;;;;;;;16.48;13.73;;;20.20;99.90;;;;;;5073321;28;20013;-68
2021/07/13 00:13:38;;;;;;;23.55;15.63;;;20.20;99.90;;;;;;5076121;28;20021;-69
2021/07/13 00:16:04;;;;;;;17.48;14.68;;;20.20;99.90;;;;;;5076304;28;20035;-69
2021/07/13 00:18:29;;;;;;;18.33;14.90;;;20.20;99.90;;;;;;5076845;28;20027;-69
2021/07/13 00:20:55;;;;;;;18.00;14.40;;;20.20;99.90;;;;;;5076508;28;20047;-69
2021/07/13 00:23:21;;;;;;;17.10;14.20;;;20.20;99.90;;;;;;5076789;28;20028;-69
2021/07/13 00:25:47;;;;;;;19.30;13.50;;;20.20;99.90;;;;;;5091721;28;20029;-69
2021/07/13 00:28:12;;;;;;;18.42;14.48;;;20.10;99.90;;;;;;5091844;28;20474;-69
2021/07/13 00:30:38;;;;;;;20.08;15.15;;;20.10;99.90;;;;;;5076041;28;20029;-69
2021/07/13 00:33:04;;;;;;;22.50;16.45;;;20.10;99.90;;;;;;5076554;28;20026;-69
2021/07/13 00:35:29;;;;;;;20.40;16.20;;;20.10;99.90;;;;;;5075990;28;20027;-69
2021/07/13 00:37:55;;;;;;;20.85;15.88;;;20.20;99.90;;;;;;5075978;28;20153;-69
2021/07/13 00:40:22;;;;;;;23.20;16.98;;;20.10;99.90;;;;;;5076432;28;20024;-69
2021/07/13 00:42:49;;;;;;;22.55;17.05;;;20.10;99.90;;;;;;5076418;28;20359;-69
2021/07/13 00:45:15;;;;;;;24.52;16.70;;;20.10;99.90;;;;;;5075985;28;20025;-69
2021/07/13 00:47:40;;;;;;;19.45;16.55;;;20.10;99.90;;;;;;5076090;28;20017;-69
2021/07/13 00:50:08;;;;;;;19.13;16.08;;;20.10;99.90;;;;;;5075685;28;20017;-69
2021/07/13 00:52:33;;;;;;;28.45;17.40;;;20.10;99.90;;;;;;5076197;28;20028;-69
2021/07/13 00:54:59;;;;;;;20.15;16.20;;;20.00;99.90;;;;;;5075665;28;20107;-68
2021/07/13 00:57:25;;;;;;;23.33;17.02;;;20.00;99.90;;;;;;5076159;28;20143;-68
2021/07/13 00:59:51;;;;;;;21.55;16.20;;;20.00;99.90;;;;;;5091782;28;20107;-68
2021/07/13 01:02:18;;;;;;;26.77;17.35;;;19.90;99.90;;;;;;5075769;28;20032;-68
2021/07/13 01:04:47;;;;;;;24.80;16.70;;;20.00;99.90;;;;;;5075595;28;20051;-68
2021/07/13 01:07:21;;;;;;;24.13;17.45;;;20.00;99.90;;;;;;5075979;28;20021;-69
2021/07/13 01:15:32;;;;;;;25.15;17.35;;;20.00;99.90;;;;;;5112291;27;20400;-68
2021/07/13 01:18:04;;;;;;;26.42;18.15;;;19.90;99.90;;;;;;5111478;28;20032;-68
2021/07/13 01:20:52;;;;;;;25.60;17.67;;;20.00;99.90;;;;;;5111761;28;20047;-68
2021/07/13 01:23:40;;;;;;;21.42;16.63;;;19.90;99.90;;;;;;5111872;28;20163;-68
2021/07/13 01:26:31;;;;;;;22.23;17.98;;;19.90;99.90;;;;;;5111494;28;20020;-70
2021/07/13 01:29:00;;;;;;;24.13;16.27;;;19.90;99.90;;;;;;5111451;28;20480;-68
2021/07/13 01:31:27;;;;;;;24.27;18.65;;;19.90;99.90;;;;;;5111784;28;20099;-70
2021/07/13 01:34:00;;;;;;;29.42;20.65;;;19.90;99.90;;;;;;5111611;28;20034;-70
2021/07/13 01:36:30;;;;;;;21.70;17.75;;;19.90;99.90;;;;;;5111072;28;20073;-69
2021/07/13 01:38:58;;;;;;;20.75;16.98;;;19.90;99.90;;;;;;5111322;28;20358;-69
2021/07/13 01:41:26;;;;;;;21.73;17.95;;;19.70;99.90;;;;;;5111557;28;20071;-70
2021/07/13 01:43:53;;;;;;;20.75;16.52;;;19.60;99.90;;;;;;5109743;28;20016;-70
2021/07/13 01:46:21;;;;;;;22.80;17.65;;;19.60;99.90;;;;;;5111148;28;20016;-69
2021/07/13 01:48:48;;;;;;;25.30;19.50;;;19.60;99.90;;;;;;5111410;28;20012;-70
2021/07/13 01:51:15;;;;;;;28.52;20.83;;;19.60;99.90;;;;;;5111269;28;20020;-70
2021/07/13 01:53:43;;;;;;;24.83;19.60;;;19.50;99.90;;;;;;5110639;28;20476;-70
2021/07/13 01:56:10;;;;;;;27.08;19.85;;;19.50;99.90;;;;;;5110898;28;20347;-69
2021/07/13 01:58:37;;;;;;;29.30;21.70;;;19.50;99.90;;;;;;5109365;28;20027;-69
2021/07/13 02:01:08;;;;;;;26.13;19.45;;;19.60;99.90;;;;;;5109819;28;20016;-70
2021/07/13 02:03:34;;;;;;;27.27;20.73;;;19.60;99.90;;;;;;5109223;28;20435;-69
2021/07/13 02:06:01;;;;;;;28.58;21.67;;;19.60;99.90;;;;;;5111144;28;20372;-69
2021/07/13 02:08:27;;;;;;;30.17;22.25;;;19.60;99.90;;;;;;5092255;28;20485;-70
2021/07/13 02:10:53;;;;;;;27.20;22.58;;;19.60;99.90;;;;;;5110940;28;20039;-69
2021/07/13 02:13:20;;;;;;;30.98;22.88;;;19.60;99.90;;;;;;5110082;28;20044;-69
2021/07/13 02:15:46;;;;;;;30.23;23.98;;;19.60;99.90;;;;;;5110846;28;20020;-70
2021/07/13 02:18:13;;;;;;;30.95;21.05;;;19.60;99.90;;;;;;5110193;28;20028;-69
2021/07/13 02:20:39;;;;;;;27.98;22.08;;;19.60;99.90;;;;;;5110734;28;20099;-70
2021/07/13 02:23:06;;;;;;;32.88;22.88;;;19.50;99.90;;;;;;5110669;28;20488;-69
2021/07/13 02:25:32;;;;;;;30.95;23.80;;;19.50;99.90;;;;;;5103922;28;20458;-69
2021/07/13 02:28:09;;;;;;;32.38;22.92;;;19.50;99.90;;;;;;5097013;28;20024;-69
2021/07/13 02:30:36;;;;;;;30.30;22.48;;;19.60;99.90;;;;;;5095581;28;20012;-69
2021/07/13 02:33:14;;;;;;;30.08;22.45;;;19.60;99.90;;;;;;5096549;28;20035;-70
2021/07/13 02:35:44;;;;;;;32.72;22.83;;;19.60;99.90;;;;;;5096854;28;20043;-70
2021/07/13 02:38:10;;;;;;;29.25;21.75;;;19.60;99.90;;;;;;5096757;28;20044;-69
2021/07/13 02:40:36;;;;;;;30.15;22.42;;;19.70;99.90;;;;;;5095621;28;20027;-68
2021/07/13 02:43:05;;;;;;;28.88;21.27;;;19.70;99.90;;;;;;5094901;28;20020;-70
2021/07/13 02:45:31;;;;;;;27.08;21.48;;;19.80;99.90;;;;;;5096378;28;20016;-69
2021/07/13 02:47:58;;;;;;;24.65;20.23;;;19.70;99.90;;;;;;5096322;28;20374;-69
2021/07/13 02:50:25;;;;;;;31.48;23.40;;;19.80;99.90;;;;;;5096594;28;20070;-70
2021/07/13 02:52:53;;;;;;;26.10;20.52;;;19.80;99.90;;;;;;5096478;28;20023;-69
2021/07/13 02:55:22;;;;;;;31.80;22.52;;;19.80;99.90;;;;;;5094621;28;20032;-70
2021/07/13 02:57:50;;;;;;;32.35;22.83;;;19.80;99.90;;;;;;5096450;28;20484;-70
2021/07/13 03:00:17;;;;;;;34.35;22.70;;;19.80;99.90;;;;;;5096409;28;20034;-69
2021/07/13 03:02:46;;;;;;;31.23;22.60;;;19.70;99.90;;;;;;5094939;28;20488;-70
2021/07/13 03:05:14;;;;;;;29.92;22.35;;;19.70;99.90;;;;;;5095733;28;20477;-70
2021/07/13 03:07:40;;;;;;;30.33;22.20;;;19.70;99.90;;;;;;5095952;28;20396;-70
2021/07/13 03:10:07;;;;;;;28.42;21.13;;;19.60;99.90;;;;;;5096231;28;20024;-70
2021/07/13 03:12:33;;;;;;;29.70;21.77;;;19.60;99.90;;;;;;5096181;28;20449;-70
2021/07/13 03:15:01;;;;;;;27.95;21.35;;;19.50;99.90;;;;;;5094023;28;20102;-70
2021/07/13 03:17:27;;;;;;;29.35;22.50;;;19.50;99.90;;;;;;5095524;28;20116;-69
2021/07/13 03:19:53;;;;;;;31.55;22.02;;;19.40;99.90;;;;;;5095741;28;20493;-70
2021/07/13 03:22:22;;;;;;;36.28;24.10;;;19.40;99.90;;;;;;5094180;28;20082;-70
2021/07/13 03:24:49;;;;;;;30.95;22.45;;;19.40;99.90;;;;;;5094733;28;20051;-70
2021/07/13 03:27:17;;;;;;;28.58;21.63;;;19.40;99.90;;;;;;5094714;28;20020;-69
2021/07/13 03:29:44;;;;;;;28.63;20.88;;;19.40;99.90;;;;;;5095545;28;20021;-70
2021/07/13 03:32:13;;;;;;;29.90;21.33;;;19.40;99.90;;;;;;5095509;28;20020;-70
2021/07/13 03:34:38;;;;;;;28.90;22.48;;;19.50;99.90;;;;;;5094692;28;20032;-70
2021/07/13 03:37:05;;;;;;;28.90;21.65;;;19.50;99.90;;;;;;5094067;28;20104;-70
2021/07/13 03:39:30;;;;;;;30.52;21.42;;;19.50;99.90;;;;;;5095568;28;20024;-70
2021/07/13 03:41:57;;;;;;;33.45;21.88;;;19.40;99.90;;;;;;5095287;28;20032;-70
2021/07/13 03:44:22;;;;;;;30.85;21.92;;;19.40;99.90;;;;;;5095502;28;20062;-70
2021/07/13 03:46:49;;;;;;;28.25;21.38;;;19.30;99.90;;;;;;5095454;28;20036;-70
2021/07/13 03:49:15;;;;;;;29.48;21.50;;;19.40;99.90;;;;;;5095460;28;20063;-70
2021/07/13 03:51:44;;;;;;;32.00;21.38;;;19.40;99.90;;;;;;5095089;28;20377;-70
2021/07/13 03:54:11;;;;;;;28.02;22.00;;;19.40;99.90;;;;;;5095282;28;20020;-70
2021/07/13 03:56:38;;;;;;;33.92;21.50;;;19.40;99.90;;;;;;5094293;28;20374;-69
2021/07/13 03:59:04;;;;;;;27.60;20.70;;;19.40;99.90;;;;;;5095267;28;20521;-69
2021/07/13 04:01:30;;;;;;;27.55;20.05;;;19.40;99.90;;;;;;5095151;28;20115;-70
2021/07/13 04:03:56;;;;;;;29.48;19.65;;;19.40;99.90;;;;;;5094876;28;20154;-69
2021/07/13 04:06:21;;;;;;;23.80;20.10;;;19.40;99.90;;;;;;5094848;28;20065;-70
2021/07/13 04:08:47;;;;;;;30.23;21.55;;;19.40;99.90;;;;;;5093633;28;20032;-70
2021/07/13 04:11:13;;;;;;;29.73;22.55;;;19.50;99.90;;;;;;5095027;28;20105;-70
2021/07/13 04:13:38;;;;;;;31.92;22.27;;;19.50;99.90;;;;;;5094357;28;20455;-69
2021/07/13 04:16:04;;;;;;;29.02;21.42;;;19.50;99.90;;;;;;5076191;28;20053;-69
2021/07/13 04:18:30;;;;;;;31.10;22.08;;;19.40;99.90;;;;;;5094829;28;20457;-70
2021/07/13 04:20:55;;;;;;;31.17;22.92;;;19.30;99.90;;;;;;5094297;28;20039;-69
2021/07/13 04:23:21;;;;;;;35.00;25.48;;;19.20;99.90;;;;;;5094495;28;20016;-69
2021/07/13 04:25:47;;;;;;;36.17;26.00;;;19.20;99.90;;;;;;5094469;28;20412;-69
2021/07/13 04:28:13;;;;;;;34.00;25.50;;;19.30;99.90;;;;;;5094701;28;20020;-70
2021/07/13 04:30:38;;;;;;;32.05;24.92;;;19.30;99.90;;;;;;5094691;28;20049;-69
2021/07/13 04:33:04;;;;;;;34.97;25.40;;;19.40;99.90;;;;;;5094299;28;20024;-70
2021/07/13 04:35:30;;;;;;;33.20;24.63;;;19.40;99.90;;;;;;5093156;28;20385;-70
2021/07/13 04:37:56;;;;;;;37.35;26.90;;;19.30;99.90;;;;;;5092706;28;20020;-69
2021/07/13 04:40:22;;;;;;;38.03;27.00;;;19.40;99.90;;;;;;5094232;28;20024;-69
2021/07/13 04:42:47;;;;;;;37.22;25.92;;;19.40;99.90;;;;;;5094469;28;20572;-70
2021/07/13 04:45:13;;;;;;;35.58;26.45;;;19.40;99.90;;;;;;5092629;28;20066;-69
2021/07/13 04:47:38;;;;;;;39.17;26.85;;;19.30;99.90;;;;;;5094179;28;20031;-70
2021/07/13 04:50:06;;;;;;;36.55;27.58;;;19.30;99.90;;;;;;5093631;28;20031;-70
2021/07/13 04:52:31;;;;;;;38.72;27.73;;;19.30;99.90;;;;;;5093233;28;20105;-69
2021/07/13 04:54:57;;;;;;;46.20;31.45;;;19.20;99.90;;;;;;5092763;28;20500;-69
2021/07/13 04:57:22;;;;;;;41.83;31.23;;;19.30;99.90;;;;;;5094281;28;20469;-70
2021/07/13 04:59:48;;;;;;;41.85;31.95;;;19.30;99.90;;;;;;5092823;28;20020;-69
2021/07/13 05:02:13;;;;;;;44.05;32.38;;;19.30;99.90;;;;;;5094243;28;20016;-69
2021/07/13 05:04:39;;;;;;;46.20;34.65;;;19.30;99.90;;;;;;5094148;28;20035;-69
2021/07/13 05:07:04;;;;;;;46.20;34.80;;;19.30;99.90;;;;;;5094141;28;20030;-69
2021/07/13 05:09:30;;;;;;;43.78;33.58;;;19.30;99.90;;;;;;5093565;28;20090;-69
2021/07/13 05:11:56;;;;;;;42.83;32.00;;;19.30;99.90;;;;;;5094080;28;20035;-69
2021/07/13 05:14:21;;;;;;;44.05;32.58;;;19.30;99.90;;;;;;5093464;28;20040;-69
2021/07/13 05:16:47;;;;;;;47.40;32.90;;;19.30;99.90;;;;;;5094089;28;20046;-69
2021/07/13 05:19:14;;;;;;;45.58;33.45;;;19.40;99.90;;;;;;5094049;28;20020;-69
2021/07/13 05:21:42;;;;;;;41.28;30.00;;;19.40;99.90;;;;;;5094064;28;20077;-69
2021/07/13 05:24:07;;;;;;;44.92;32.88;;;19.40;99.90;;;;;;5094032;28;20496;-70
2021/07/13 05:26:33;;;;;;;46.13;31.67;;;19.50;99.90;;;;;;5093982;28;20062;-69
2021/07/13 05:29:04;;;;;;;44.17;31.38;;;19.50;99.90;;;;;;5093666;28;20054;-69
2021/07/13 05:31:29;;;;;;;42.35;30.70;;;19.60;99.90;;;;;;5093959;28;20028;-69
2021/07/13 05:33:57;;;;;;;42.40;29.67;;;19.60;99.90;;;;;;5093873;28;20028;-69
2021/07/13 05:36:25;;;;;;;41.30;29.08;;;19.60;99.90;;;;;;5093665;28;20099;-69
2021/07/13 05:38:53;;;;;;;38.40;28.38;;;19.60;99.90;;;;;;5092429;28;20416;-69
2021/07/13 05:41:20;;;;;;;39.75;29.02;;;19.60;99.90;;;;;;5093877;28;20024;-69
2021/07/13 05:43:46;;;;;;;43.58;28.77;;;19.60;99.90;;;;;;5093826;28;20481;-69
2021/07/13 05:46:11;;;;;;;38.20;27.90;;;19.60;99.90;;;;;;5093755;28;20043;-69
2021/07/13 05:48:37;;;;;;;40.88;30.08;;;19.70;99.90;;;;;;5093451;28;20094;-69
2021/07/13 05:51:02;;;;;;;37.85;27.48;;;19.60;99.90;;;;;;5093700;28;20032;-69
2021/07/13 05:53:28;;;;;;;38.90;28.20;;;19.70;99.90;;;;;;5093664;28;20420;-69
2021/07/13 05:55:53;;;;;;;37.25;28.20;;;19.60;99.90;;;;;;5075021;28;20062;-69
2021/07/13 05:58:20;;;;;;;37.42;28.55;;;19.60;99.90;;;;;;5093631;28;20024;-69
2021/07/13 06:00:47;;;;;;;43.50;28.08;;;19.60;99.90;;;;;;5094448;28;20016;-69
2021/07/13 06:03:12;;;;;;;37.95;28.85;;;19.60;99.90;;;;;;5094893;28;20084;-70
2021/07/13 06:05:38;;;;;;;35.75;28.63;;;19.60;99.90;;;;;;5095325;28;20472;-69
2021/07/13 06:08:04;;;;;;;35.83;27.83;;;19.60;99.90;;;;;;5096853;28;20146;-69
2021/07/13 06:10:29;;;;;;;40.85;29.27;;;19.60;99.90;;;;;;5096998;28;20103;-69
2021/07/13 06:12:55;;;;;;;36.58;27.17;;;19.60;99.90;;;;;;5094737;28;20020;-69
2021/07/13 06:15:21;;;;;;;40.90;28.70;;;19.70;99.90;;;;;;5093051;28;20040;-69
2021/07/13 06:17:46;;;;;;;35.28;26.98;;;19.80;99.90;;;;;;5095055;28;20154;-69
2021/07/13 06:20:13;;;;;;;35.92;28.02;;;19.70;99.90;;;;;;5096065;28;20036;-69
2021/07/13 06:22:39;;;;;;;36.20;26.85;;;19.80;99.90;;;;;;5095434;28;20028;-69
2021/07/13 06:25:06;;;;;;;35.88;27.13;;;19.80;99.90;;;;;;5100675;28;20115;-69
2021/07/13 06:27:32;;;;;;;37.63;27.48;;;19.80;99.90;;;;;;5096294;28;20020;-69
2021/07/13 06:29:57;;;;;;;37.13;27.20;;;19.80;99.90;;;;;;5096287;28;20047;-69
2021/07/13 06:32:23;;;;;;;39.70;29.33;;;19.80;99.90;;;;;;5106432;28;20518;-70
2021/07/13 06:34:48;;;;;;;36.78;27.55;;;19.80;99.90;;;;;;5096093;28;20069;-69
2021/07/13 06:37:14;;;;;;;38.60;29.55;;;19.80;99.90;;;;;;5096786;28;20103;-69
2021/07/13 06:39:39;;;;;;;39.42;29.08;;;19.80;99.90;;;;;;5095571;28;20024;-69
2021/07/13 06:42:05;;;;;;;36.47;28.60;;;19.80;99.90;;;;;;5088262;28;20102;-69
2021/07/13 06:44:31;;;;;;;47.63;29.90;;;19.80;99.90;;;;;;5093136;28;20103;-69
2021/07/13 06:46:56;;;;;;;40.63;29.52;;;19.70;99.90;;;;;;5094423;28;20028;-69
2021/07/13 06:49:22;;;;;;;39.90;30.17;;;19.80;99.90;;;;;;5095689;28;20035;-69
2021/07/13 06:51:47;;;;;;;40.58;30.65;;;19.70;99.90;;;;;;5094783;28;20028;-69
2021/07/13 06:54:13;;;;;;;40.60;30.73;;;19.70;99.90;;;;;;5094955;28;20385;-69
2021/07/13 06:56:38;;;;;;;43.30;31.60;;;19.70;99.90;;;;;;5094299;28;20036;-70
2021/07/13 06:59:05;;;;;;;47.67;33.55;;;19.60;99.90;;;;;;5094872;28;20032;-69
2021/07/13 07:01:31;;;;;;;47.92;33.20;;;19.60;99.90;;;;;;5094420;28;20069;-69
2021/07/13 07:03:56;;;;;;;48.47;34.97;;;19.50;99.90;;;;;;5093797;28;20024;-69
2021/07/13 07:06:22;;;;;;;51.08;34.22;;;19.50;99.90;;;;;;5094161;28;20032;-69
2021/07/13 07:08:47;;;;;;;42.63;33.60;;;19.50;99.90;;;;;;5094841;28;20031;-70
2021/07/13 07:11:13;;;;;;;47.28;35.60;;;19.40;99.90;;;;;;5095292;28;20020;-69
2021/07/13 07:13:39;;;;;;;44.72;32.35;;;19.40;99.90;;;;;;5094791;28;20135;-69
2021/07/13 07:16:05;;;;;;;40.75;31.48;;;19.30;99.90;;;;;;5094920;28;20024;-69
2021/07/13 07:18:31;;;;;;;46.88;33.00;;;19.30;99.90;;;;;;5094049;28;20429;-70
2021/07/13 07:20:56;;;;;;;49.17;32.45;;;19.40;99.90;;;;;;5094986;28;20024;-69
2021/07/13 07:23:22;;;;;;;48.30;33.33;;;19.50;99.90;;;;;;5095137;28;20034;-70
2021/07/13 07:25:47;;;;;;;43.53;33.35;;;19.50;99.90;;;;;;5094892;28;20032;-70
2021/07/13 07:28:13;;;;;;;43.97;32.42;;;19.50;99.90;;;;;;5095275;28;20028;-69
2021/07/13 07:30:39;;;;;;;44.78;32.85;;;19.70;99.90;;;;;;5094886;28;20036;-70
2021/07/13 07:33:05;;;;;;;49.83;30.33;;;19.90;99.90;;;;;;5094103;28;20069;-69
2021/07/13 07:35:30;;;;;;;42.55;29.65;;;20.10;99.90;;;;;;5094749;28;20035;-70
2021/07/13 07:37:57;;;;;;;43.67;31.10;;;20.10;99.90;;;;;;5095278;28;20052;-70
2021/07/13 07:40:22;;;;;;;42.22;28.58;;;20.30;99.90;;;;;;5094559;28;20074;-70
2021/07/13 07:42:51;;;;;;;37.05;28.25;;;20.40;99.90;;;;;;5092344;28;20024;-69
2021/07/13 07:45:17;;;;;;;35.75;27.77;;;20.50;99.90;;;;;;5094281;28;20031;-70
2021/07/13 07:47:44;;;;;;;39.17;27.90;;;20.60;99.90;;;;;;5094365;28;20072;-70
2021/07/13 07:50:11;;;;;;;39.10;28.40;;;20.50;99.90;;;;;;5094246;28;20015;-69
2021/07/13 07:52:36;;;;;;;35.67;28.63;;;20.80;99.90;;;;;;5093205;28;20452;-70
2021/07/13 07:55:05;;;;;;;33.38;27.05;;;21.00;99.90;;;;;;5093881;28;20020;-70
2021/07/13 07:57:30;;;;;;;34.42;25.77;;;21.20;99.90;;;;;;5094372;28;20024;-70
2021/07/13 07:59:56;;;;;;;36.17;26.10;;;21.30;99.90;;;;;;5094277;28;20506;-70
2021/07/13 08:02:21;;;;;;;34.25;24.58;;;21.60;99.90;;;;;;5095017;28;20375;-69
2021/07/13 08:04:47;;;;;;;31.52;23.20;;;21.60;99.90;;;;;;5093040;28;20489;-69
2021/07/13 08:07:13;;;;;;;30.58;23.02;;;21.60;99.90;;;;;;5092843;28;20115;-69
2021/07/13 08:09:38;;;;;;;28.25;23.40;;;21.60;99.90;;;;;;5094238;28;20051;-69
2021/07/13 08:12:05;;;;;;;33.85;24.33;;;21.80;99.90;;;;;;5094443;28;20027;-69
2021/07/13 08:14:30;;;;;;;27.88;23.25;;;21.90;99.90;;;;;;5093541;28;20048;-69
2021/07/13 08:16:56;;;;;;;29.40;22.63;;;21.70;99.90;;;;;;5094116;28;20028;-69
2021/07/13 08:19:22;;;;;;;26.65;21.80;;;21.60;99.90;;;;;;5093874;28;20410;-69
2021/07/13 08:21:48;;;;;;;29.45;21.38;;;21.70;99.90;;;;;;5093749;28;20016;-69
2021/07/13 08:24:14;;;;;;;28.92;22.80;;;21.80;99.90;;;;;;5093648;28;20024;-69
2021/07/13 08:26:40;;;;;;;26.95;22.23;;;22.00;99.90;;;;;;5093324;28;20412;-69
2021/07/13 08:29:06;;;;;;;26.05;21.30;;;22.10;99.90;;;;;;5092950;28;20028;-69
2021/07/13 08:31:32;;;;;;;29.55;22.77;;;22.10;99.90;;;;;;5090163;28;20028;-69
2021/07/13 08:33:57;;;;;;;33.17;23.80;;;21.90;99.90;;;;;;5092008;28;20028;-69
2021/07/13 08:36:23;;;;;;;31.45;24.42;;;22.00;99.90;;;;;;5092712;28;20028;-69
2021/07/13 08:38:49;;;;;;;26.75;22.80;;;21.90;99.90;;;;;;5093060;28;20031;-70
2021/07/13 08:41:20;;;;;;;35.22;23.70;;;21.90;99.90;;;;;;5093687;28;20031;-69
2021/07/13 08:43:46;;;;;;;30.63;24.50;;;22.00;99.90;;;;;;5092774;28;20028;-70
2021/07/13 08:46:12;;;;;;;30.88;24.83;;;22.00;99.90;;;;;;5092616;28;20491;-69
2021/07/13 08:48:40;;;;;;;29.08;23.60;;;22.10;99.90;;;;;;5092836;28;20031;-69
2021/07/13 08:51:06;;;;;;;32.55;23.70;;;22.30;99.90;;;;;;5092918;28;20031;-70
2021/07/13 08:53:32;;;;;;;30.58;23.90;;;22.50;99.90;;;;;;5092474;28;20435;-70
2021/07/13 08:55:58;;;;;;;33.75;23.35;;;22.70;99.90;;;;;;5092774;28;20016;-70
2021/07/13 08:58:27;;;;;;;29.65;23.20;;;22.80;99.90;;;;;;5092880;28;20027;-69
2021/07/13 09:00:53;;;;;;;29.73;25.15;;;22.90;99.90;;;;;;5093295;28;20023;-69
2021/07/13 09:03:21;;;;;;;29.52;24.50;;;22.60;99.90;;;;;;5093911;28;20511;-69
2021/07/13 09:05:49;;;;;;;30.90;24.88;;;22.40;99.90;;;;;;5093128;28;20052;-69
2021/07/13 09:08:18;;;;;;;32.40;24.33;;;22.40;99.90;;;;;;5090658;28;20389;-70
2021/07/13 09:11:02;;;;;;;30.42;24.00;;;22.20;99.90;;;;;;5091694;28;20047;-69
2021/07/13 09:13:30;;;;;;;29.20;23.55;;;22.20;99.90;;;;;;5092906;28;20505;-69
2021/07/13 09:15:58;;;;;;;29.67;24.50;;;22.10;99.90;;;;;;5093482;28;20024;-69
2021/07/13 09:18:35;;;;;;;32.40;24.48;;;22.20;99.90;;;;;;5092797;28;20028;-69
2021/07/13 09:21:27;;;;;;;34.88;26.38;;;22.20;99.90;;;;;;5093969;28;20044;-69
2021/07/13 09:24:07;;;;;;;31.23;25.02;;;22.10;99.90;;;;;;5073012;28;20024;-69
2021/07/13 09:26:42;;;;;;;34.13;26.13;;;21.90;99.90;;;;;;5082724;28;20027;-69
2021/07/13 09:29:29;;;;;;;33.72;27.48;;;21.90;99.90;;;;;;5091633;28;20382;-69
2021/07/13 09:32:14;;;;;;;33.25;27.08;;;21.60;99.90;;;;;;5090350;28;20012;-69
2021/07/13 09:34:48;;;;;;;36.88;28.75;;;21.50;99.90;;;;;;5088774;28;20032;-69
2021/07/13 09:37:32;;;;;;;33.35;28.13;;;21.50;99.90;;;;;;5096565;28;20019;-69
2021/07/13 09:40:09;;;;;;;39.38;30.75;;;21.30;99.90;;;;;;5096695;28;20101;-69
2021/07/13 09:42:42;;;;;;;40.97;28.83;;;21.30;99.90;;;;;;5093977;28;20024;-69
2021/07/13 09:45:33;;;;;;;38.30;28.67;;;21.50;99.90;;;;;;5096063;28;20103;-69
2021/07/13 09:48:01;;;;;;;38.75;29.10;;;21.50;99.90;;;;;;5088200;28;20027;-69
2021/07/13 09:50:44;;;;;;;36.60;28.23;;;21.50;99.90;;;;;;5097235;28;20055;-69
2021/07/13 09:53:15;;;;;;;38.22;29.98;;;21.50;99.90;;;;;;5097254;28;20028;-69
2021/07/13 09:55:41;;;;;;;35.47;27.90;;;21.40;99.90;;;;;;5094963;28;20085;-69
2021/07/13 09:58:26;;;;;;;33.63;26.77;;;21.60;99.90;;;;;;5095487;28;20466;-69
2021/07/13 10:00:57;;;;;;;35.25;26.02;;;21.80;99.90;;;;;;5094070;28;20055;-69
2021/07/13 10:03:23;;;;;;;30.35;23.58;;;21.80;99.90;;;;;;5096576;28;20071;-69
2021/07/13 10:05:50;;;;;;;29.73;23.10;;;22.10;99.90;;;;;;5100545;28;20421;-69
2021/07/13 10:08:18;;;;;;;31.50;23.85;;;22.40;99.90;;;;;;5101597;28;20048;-69
2021/07/13 10:10:46;;;;;;;29.85;23.88;;;22.30;99.90;;;;;;5095652;28;20516;-69
2021/07/13 10:13:12;;;;;;;27.58;21.10;;;22.30;99.90;;;;;;5094041;28;20012;-69
2021/07/13 10:15:39;;;;;;;25.70;20.83;;;22.40;99.90;;;;;;5075443;28;20037;-70
2021/07/13 10:18:06;;;;;;;25.60;21.00;;;22.40;99.90;;;;;;5094518;28;20381;-69
2021/07/13 10:20:32;;;;;;;23.85;20.15;;;22.10;99.90;;;;;;5093789;28;20115;-69
2021/07/13 10:23:00;;;;;;;26.60;21.70;;;22.00;99.90;;;;;;5093146;28;20971;-69
2021/07/13 10:25:35;;;;;;;28.80;21.58;;;22.00;99.90;;;;;;5090151;28;20122;-69
2021/07/13 10:28:00;;;;;;;26.40;21.13;;;22.00;99.90;;;;;;5093751;28;20366;-69
2021/07/13 10:33:32;;;;;;;23.08;19.23;;;22.10;99.90;;;;;;5110745;27;20308;-70
2021/07/13 10:36:26;;;;;;;25.35;20.33;;;22.50;99.90;;;;;;5109086;28;20024;-69
2021/07/13 10:39:11;;;;;;;;;;;22.30;99.90;;;;;;5109373;28;20034;-68
2021/07/13 10:41:37;;;;;;;24.50;18.30;;;22.50;99.90;;;;;;5102775;28;20428;-69
2021/07/13 10:44:02;;;;;;;25.90;17.65;;;22.50;99.90;;;;;;5110361;28;20063;-69
2021/07/13 10:46:28;;;;;;;20.10;17.95;;;22.40;99.90;;;;;;5110954;28;20035;-69
2021/07/13 10:49:15;;;;;;;24.50;18.65;;;22.40;99.90;;;;;;5112156;28;20027;-68
2021/07/13 10:51:41;;;;;;;22.85;17.25;;;22.40;99.90;;;;;;5120002;27;20024;-68
2021/07/13 10:54:07;;;;;;;22.83;18.45;;;22.60;99.90;;;;;;5111308;28;20065;-69
2021/07/13 10:56:32;;;;;;;24.40;19.33;;;22.60;99.90;;;;;;5113593;28;20020;-68
2021/07/13 10:58:58;;;;;;;20.85;16.88;;;22.70;99.90;;;;;;5110162;28;20385;-68
2021/07/13 11:01:27;;;;;;;22.13;16.88;;;22.60;99.90;;;;;;5110865;28;20028;-69
2021/07/13 11:03:55;;;;;;;16.98;15.07;;;22.60;99.90;;;;;;5110063;28;20024;-68
2021/07/13 11:06:45;;;;;;;19.38;16.35;;;22.70;99.90;;;;;;5108982;28;20415;-68
2021/07/13 11:09:18;;;;;;;21.73;15.50;;;22.80;99.90;;;;;;5101166;28;20637;-68
2021/07/13 11:11:43;;;;;;;19.58;14.50;;;22.90;99.90;;;;;;5109678;28;20028;-68
2021/07/13 11:14:10;;;;;;;17.58;14.88;;;22.80;99.90;;;;;;5108556;28;20050;-69
2021/07/13 11:16:39;;;;;;;16.40;14.65;;;22.70;99.90;;;;;;5109827;28;20078;-69
2021/07/13 11:19:12;;;;;;;23.42;16.63;;;22.90;99.90;;;;;;5107459;28;20095;-68
2021/07/13 11:21:41;;;;;;;20.48;15.90;;;22.50;99.90;;;;;;5109271;28;20027;-69
2021/07/13 11:26:49;;;;;;;20.42;16.48;;;22.40;99.90;;;;;;5110483;27;20867;-68
2021/07/13 11:29:18;;;;;;;22.13;17.33;;;22.40;99.90;;;;;;5111137;28;20531;-68
2021/07/13 11:31:47;;;;;;;22.92;16.80;;;22.20;99.90;;;;;;5108079;28;20028;-68
2021/07/13 11:34:14;;;;;;;21.00;17.60;;;22.10;99.90;;;;;;5092806;28;20035;-70
2021/07/13 11:36:42;;;;;;;24.75;17.42;;;22.20;99.90;;;;;;5109978;28;20020;-69
2021/07/13 11:39:10;;;;;;;23.35;17.20;;;22.20;99.90;;;;;;5109812;28;20031;-70
2021/07/13 11:41:36;;;;;;;22.15;16.63;;;22.30;99.90;;;;;;5109117;28;20485;-70
2021/07/13 11:44:04;;;;;;;23.15;17.52;;;22.30;99.90;;;;;;5110330;28;20432;-69
2021/07/13 11:46:34;;;;;;;23.80;18.63;;;22.30;99.90;;;;;;5091588;28;20024;-70
2021/07/13 11:49:06;;;;;;;22.13;18.50;;;22.20;99.90;;;;;;5092895;28;20024;-70
2021/07/13 11:51:42;;;;;;;24.38;18.95;;;22.20;99.90;;;;;;5108704;28;20020;-70
2021/07/13 11:56:48;;;;;;;28.63;20.08;;;22.30;99.90;;;;;;5110494;27;20359;-69
2021/07/13 11:59:15;;;;;;;24.40;19.00;;;22.40;99.90;;;;;;5110438;28;20039;-68
2021/07/13 12:01:43;;;;;;;23.27;19.10;;;22.50;99.90;;;;;;5110004;28;20090;-69
2021/07/13 12:04:11;;;;;;;25.08;20.08;;;22.50;99.90;;;;;;5110101;28;20023;-69
2021/07/13 12:06:38;;;;;;;25.02;20.85;;;22.40;99.90;;;;;;5107711;28;20020;-68
2021/07/13 12:09:08;;;;;;;26.45;21.35;;;22.30;99.90;;;;;;5110089;28;20027;-69
2021/07/13 12:11:36;;;;;;;31.17;21.25;;;22.20;99.90;;;;;;5108965;28;20089;-69
2021/07/13 12:14:04;;;;;;;27.48;20.33;;;22.50;99.90;;;;;;5109835;28;20480;-68
2021/07/13 12:16:32;;;;;;;26.42;20.67;;;22.50;99.90;;;;;;5110280;28;20051;-68
2021/07/13 12:19:00;;;;;;;24.27;20.77;;;22.70;99.90;;;;;;5110188;28;20080;-68
2021/07/13 12:21:27;;;;;;;25.55;19.92;;;22.60;99.90;;;;;;5109389;28;20016;-68
2021/07/13 12:23:54;;;;;;;29.27;21.63;;;22.60;99.90;;;;;;5111171;28;20350;-69
2021/07/13 12:29:14;;;;;;;23.08;20.38;;;22.40;99.90;;;;;;5111010;27;20298;-70
2021/07/13 12:34:26;;;;;;;25.05;21.23;;;22.30;99.90;;;;;;5120131;27;20395;-70
2021/07/13 12:37:04;;;;;;;28.10;21.75;;;22.50;99.90;;;;;;5102402;28;20051;-71
2021/07/13 12:39:30;;;;;;;28.13;23.08;;;22.70;99.90;;;;;;5109657;28;20492;-70
2021/07/13 12:42:09;;;;;;;29.25;21.85;;;22.70;99.90;;;;;;5109574;28;20036;-70
2021/07/13 12:44:51;;;;;;;24.92;20.88;;;22.60;99.90;;;;;;5109094;28;20530;-70
2021/07/13 12:47:38;;;;;;;25.50;21.35;;;22.60;99.90;;;;;;5111747;28;20112;-70
2021/07/13 12:53:14;;;;;;;21.90;19.42;;;22.50;99.90;;;;;;5110878;27;20432;-69
2021/07/13 12:58:22;;;;;;;30.17;21.27;;;22.60;99.90;;;;;;5111131;27;20459;-69